createdAt,value
2018-03-10T00:00:20.448Z,97.30
2018-03-10T00:05:14.959Z,97.30
2018-03-10T00:10:09.807Z,97.30
2018-03-10T00:15:04.203Z,97.30
2018-03-10T00:19:58.969Z,97.30
2018-03-10T00:24:53.421Z,97.40
2018-03-10T00:29:48.340Z,97.40
2018-03-10T00:34:42.777Z,97.40
2018-03-10T00:39:37.092Z,97.30
2018-03-10T00:44:33.665Z,97.40
2018-03-10T00:49:28.083Z,97.40
2018-03-10T00:54:22.706Z,97.20
2018-03-10T00:59:16.920Z,97.10
2018-03-10T01:04:11.508Z,97.10
2018-03-10T01:09:06.251Z,97.10
2018-03-10T01:14:00.881Z,97.10
2018-03-10T01:18:55.976Z,97.20
2018-03-10T01:23:50.294Z,97.20
2018-03-10T01:28:44.666Z,97.20
2018-03-10T01:33:39.065Z,97.20
2018-03-10T01:38:33.415Z,97.10
2018-03-10T01:43:28.615Z,97.00
2018-03-10T01:48:22.952Z,97.00
2018-03-10T01:53:18.047Z,96.90
2018-03-10T01:58:13.153Z,96.90
2018-03-10T02:03:07.485Z,96.90
2018-03-10T02:08:02.559Z,97.20
2018-03-10T02:12:56.920Z,96.80
2018-03-10T02:17:51.302Z,96.70
2018-03-10T02:22:46.412Z,96.70
2018-03-10T02:27:40.745Z,96.70
2018-03-10T02:32:35.038Z,96.80
2018-03-10T02:37:30.136Z,96.80
2018-03-10T02:42:24.472Z,96.80
2018-03-10T02:47:18.793Z,96.70
2018-03-10T02:52:13.164Z,96.70
2018-03-10T02:57:07.717Z,96.80
2018-03-10T03:02:02.043Z,97.00
2018-03-10T03:06:56.374Z,97.00
2018-03-10T03:11:51.486Z,97.10
2018-03-10T03:16:46.601Z,97.10
2018-03-10T03:21:41.710Z,97.10
2018-03-10T03:26:36.064Z,97.10
2018-03-10T03:31:30.378Z,97.10
2018-03-10T03:36:24.737Z,97.00
2018-03-10T03:41:19.066Z,96.90
2018-03-10T03:46:13.403Z,96.80
2018-03-10T03:51:07.829Z,96.70
2018-03-10T03:56:02.345Z,96.70
2018-03-10T04:00:57.424Z,96.50
2018-03-10T04:05:51.766Z,96.50
2018-03-10T04:10:46.865Z,96.50
2018-03-10T04:15:41.431Z,96.50
2018-03-10T04:20:35.756Z,96.70
2018-03-10T04:25:30.086Z,96.20
2018-03-10T04:30:25.193Z,96.30
2018-03-10T04:35:19.272Z,96.60
2018-03-10T04:40:13.609Z,96.20
2018-03-10T04:45:08.688Z,96.20
2018-03-10T04:50:03.028Z,96.20
2018-03-10T04:54:58.123Z,96.20
2018-03-10T04:59:52.455Z,96.20
2018-03-10T05:04:47.541Z,96.10
2018-03-10T05:09:41.989Z,96.10
2018-03-10T05:14:36.336Z,96.00
2018-03-10T05:19:30.678Z,96.00
2018-03-10T05:24:25.770Z,95.70
2018-03-10T05:29:20.113Z,95.70
2018-03-10T05:34:14.443Z,95.60
2018-03-10T05:39:08.816Z,95.50
2018-03-10T05:44:03.150Z,95.50
2018-03-10T05:48:57.488Z,95.40
2018-03-10T05:53:51.831Z,95.30
2018-03-10T05:58:46.167Z,95.20
2018-03-10T06:03:40.524Z,95.20
2018-03-10T06:08:34.858Z,95.40
2018-03-10T06:13:29.282Z,94.40
2018-03-10T06:18:23.614Z,94.20
2018-03-10T06:23:18.732Z,93.70
2018-03-10T06:28:13.812Z,93.20
2018-03-10T06:33:08.138Z,93.20
2018-03-10T06:38:02.496Z,92.80
2018-03-10T06:42:56.823Z,92.70
2018-03-10T06:47:51.274Z,92.30
2018-03-10T06:52:46.753Z,92.40
2018-03-10T06:57:41.193Z,92.40
2018-03-10T07:02:35.730Z,92.40
2018-03-10T07:07:30.062Z,92.30
2018-03-10T07:12:24.645Z,92.20
2018-03-10T07:17:19.499Z,92.30
2018-03-10T07:22:13.989Z,92.30
2018-03-10T07:27:08.311Z,91.80
2018-03-10T07:32:02.702Z,91.10
2018-03-10T07:36:57.223Z,90.60
2018-03-10T07:41:51.539Z,90.10
2018-03-10T07:46:46.628Z,88.30
2018-03-10T07:51:40.971Z,88.20
2018-03-10T07:56:36.333Z,86.40
2018-03-10T08:01:31.178Z,86.30
2018-03-10T08:06:25.589Z,82.70
2018-03-10T08:11:19.982Z,80.50
2018-03-10T08:16:14.317Z,81.10
2018-03-10T08:21:09.406Z,78.80
2018-03-10T08:26:03.848Z,78.70
2018-03-10T08:30:58.179Z,73.60
2018-03-10T08:35:52.869Z,70.50
2018-03-10T08:40:47.187Z,71.00
2018-03-10T08:45:41.498Z,69.60
2018-03-10T08:50:35.820Z,69.40
2018-03-10T08:55:30.178Z,68.90
2018-03-10T09:00:24.474Z,68.40
2018-03-10T09:05:21.673Z,70.70
2018-03-10T09:10:15.991Z,68.40
2018-03-10T09:15:10.380Z,67.90
2018-03-10T09:20:05.670Z,68.40
2018-03-10T09:24:59.988Z,68.30
2018-03-10T09:29:55.128Z,69.80
2018-03-10T09:34:49.432Z,69.70
2018-03-10T09:39:43.752Z,68.40
2018-03-10T09:44:38.089Z,68.30
2018-03-10T09:49:32.394Z,67.00
2018-03-10T09:54:26.702Z,68.60
2018-03-10T09:59:21.004Z,68.50
2018-03-10T10:04:15.306Z,69.00
2018-03-10T10:09:09.626Z,68.80
2018-03-10T10:14:04.698Z,68.50
2018-03-10T10:18:59.021Z,68.50
2018-03-10T10:23:53.319Z,68.10
2018-03-10T10:28:47.830Z,68.10
2018-03-10T10:33:42.175Z,67.70
2018-03-10T10:38:36.467Z,67.90
2018-03-10T10:43:30.949Z,68.00
2018-03-10T10:48:26.030Z,67.10
2018-03-10T10:53:20.388Z,67.00
2018-03-10T10:58:15.546Z,65.00
2018-03-10T11:03:14.512Z,65.00
2018-03-10T11:08:09.573Z,61.90
2018-03-10T11:13:03.900Z,61.80
2018-03-10T11:17:58.235Z,63.00
2018-03-10T11:22:53.314Z,62.30
2018-03-10T11:27:47.618Z,62.30
2018-03-10T11:32:42.688Z,61.90
2018-03-10T11:37:37.106Z,61.80
2018-03-10T11:42:31.615Z,61.00
2018-03-10T11:47:25.922Z,62.00
2018-03-10T11:52:20.387Z,62.10
2018-03-10T11:57:14.778Z,61.80
2018-03-10T12:02:09.090Z,62.20
2018-03-10T12:07:03.427Z,61.10
2018-03-10T12:11:57.758Z,60.60
2018-03-10T12:16:52.831Z,59.50
2018-03-10T12:21:47.147Z,59.50
2018-03-10T12:26:41.488Z,59.20
2018-03-10T12:31:36.036Z,59.30
2018-03-10T12:36:30.353Z,59.20
2018-03-10T12:41:25.572Z,59.30
2018-03-10T12:46:19.845Z,59.20
2018-03-10T12:51:14.165Z,59.60
2018-03-10T12:56:08.473Z,60.20
2018-03-10T13:01:02.769Z,60.10
2018-03-10T13:05:56.910Z,60.40
2018-03-10T13:10:51.977Z,60.60
2018-03-10T13:15:46.300Z,60.60
2018-03-10T13:20:40.617Z,61.20
2018-03-10T13:25:35.910Z,62.30
2018-03-10T13:30:30.538Z,62.20
2018-03-10T13:35:24.830Z,63.30
2018-03-10T13:40:19.128Z,63.10
2018-03-10T13:45:13.439Z,64.10
2018-03-10T13:50:07.875Z,64.80
2018-03-10T13:55:02.944Z,66.30
2018-03-10T13:59:57.547Z,66.30
2018-03-10T14:20:45.564Z,66.60
2018-03-10T14:25:40.636Z,66.70
2018-03-10T14:30:34.946Z,66.60
2018-03-10T14:35:29.390Z,66.90
2018-03-10T14:40:24.470Z,67.30
2018-03-10T14:45:18.798Z,67.30
2018-03-10T14:50:14.168Z,68.20
2018-03-10T14:55:08.692Z,68.10
2018-03-10T15:00:03.039Z,68.50
2018-03-10T15:04:58.326Z,69.60
2018-03-10T15:09:52.634Z,69.50
2018-03-10T15:14:48.450Z,70.40
2018-03-10T15:19:42.746Z,70.40
2018-03-10T15:24:37.243Z,71.30
2018-03-10T15:29:31.546Z,72.00
2018-03-10T15:34:26.215Z,73.60
2018-03-10T15:39:21.489Z,75.20
2018-03-10T15:44:15.877Z,75.10
2018-03-10T15:49:10.402Z,75.60
2018-03-10T15:54:04.652Z,76.00
2018-03-10T15:59:00.193Z,77.70
2018-03-10T16:03:54.519Z,77.70
2018-03-10T16:08:48.824Z,78.30
2018-03-10T16:13:43.891Z,80.60
2018-03-10T16:18:38.040Z,80.60
2018-03-10T16:23:32.172Z,80.30
2018-03-10T16:28:26.459Z,81.10
2018-03-10T16:33:21.770Z,80.60
2018-03-10T16:38:16.078Z,81.00
2018-03-10T16:43:10.394Z,81.20
2018-03-10T16:48:04.829Z,81.50
2018-03-10T16:52:59.947Z,82.50
2018-03-10T16:57:54.652Z,82.50
2018-03-10T17:02:49.738Z,85.30
2018-03-10T17:07:44.154Z,85.20
2018-03-10T17:12:38.650Z,86.50
2018-03-10T17:17:32.985Z,87.50
2018-03-10T17:22:28.210Z,88.30
2018-03-10T17:27:23.488Z,89.10
2018-03-10T17:32:17.869Z,89.00
2018-03-10T17:37:12.378Z,89.80
2018-03-10T17:42:06.833Z,90.40
2018-03-10T17:47:01.707Z,90.70
2018-03-10T17:51:56.039Z,90.70
2018-03-10T17:56:50.370Z,91.20
2018-03-10T18:01:44.749Z,91.30
2018-03-10T18:06:39.204Z,91.50
2018-03-10T18:11:34.434Z,91.60
2018-03-10T18:16:28.837Z,91.90
2018-03-10T18:21:23.336Z,91.90
2018-03-10T18:26:17.965Z,92.80
2018-03-10T18:31:12.276Z,92.90
2018-03-10T18:36:06.585Z,92.80
2018-03-10T18:41:01.111Z,92.70
2018-03-10T18:45:56.483Z,92.80
2018-03-10T18:50:50.993Z,92.80
2018-03-10T18:55:45.370Z,92.60
2018-03-10T19:00:39.913Z,92.50
2018-03-10T19:05:34.606Z,92.50
2018-03-10T19:10:29.121Z,92.30
2018-03-10T19:15:23.441Z,92.30
2018-03-10T19:20:18.681Z,92.10
2018-03-10T19:25:13.517Z,92.10
2018-03-10T19:30:08.606Z,91.80
2018-03-10T19:35:02.933Z,91.80
2018-03-10T19:39:58.280Z,91.80
2018-03-10T19:44:52.700Z,91.70
2018-03-10T19:49:47.125Z,91.80
2018-03-10T19:54:41.556Z,91.80
2018-03-10T19:59:36.652Z,91.60
2018-03-10T20:04:30.974Z,91.60
2018-03-10T20:09:25.303Z,91.60
2018-03-10T20:14:19.769Z,91.80
2018-03-10T20:19:14.260Z,91.50
2018-03-10T20:24:08.576Z,91.50
2018-03-10T20:29:02.923Z,91.40
2018-03-10T20:33:58.005Z,91.80
2018-03-10T20:38:52.722Z,91.50
2018-03-10T20:43:47.031Z,91.50
2018-03-10T20:48:41.428Z,91.60
2018-03-10T20:53:35.870Z,91.90
2018-03-10T20:58:30.464Z,91.60
2018-03-10T21:03:25.518Z,91.90
2018-03-10T21:08:20.050Z,91.80
2018-03-10T21:13:14.370Z,91.80
2018-03-10T21:18:09.551Z,92.00
2018-03-10T21:23:03.878Z,91.60
2018-03-10T21:28:00.388Z,91.60
2018-03-10T21:32:54.725Z,91.60
2018-03-10T21:37:49.246Z,91.70
2018-03-10T21:42:43.547Z,91.70
2018-03-10T21:47:38.289Z,91.80
2018-03-10T21:52:33.382Z,91.80
2018-03-10T21:57:27.698Z,91.70
2018-03-10T22:02:22.833Z,91.90
2018-03-10T22:07:17.445Z,91.90
2018-03-10T22:12:11.915Z,92.10
2018-03-10T22:17:07.113Z,92.50
2018-03-10T22:22:01.428Z,92.40
2018-03-10T22:26:55.743Z,92.60
2018-03-10T22:31:50.073Z,92.60
2018-03-10T22:36:44.525Z,92.60
2018-03-10T22:41:39.073Z,92.60
2018-03-10T22:46:33.406Z,92.60
2018-03-10T22:51:27.745Z,92.90
2018-03-10T22:56:22.464Z,92.50
2018-03-10T23:01:16.913Z,92.50
2018-03-10T23:06:11.437Z,92.40
2018-03-10T23:11:05.791Z,92.30
2018-03-10T23:16:00.899Z,92.40
2018-03-10T23:20:56.927Z,92.40
2018-03-10T23:25:51.511Z,92.40
2018-03-10T23:30:45.811Z,92.30
2018-03-10T23:35:40.123Z,92.40
2018-03-10T23:40:34.538Z,92.40
2018-03-10T23:45:29.019Z,92.50
2018-03-10T23:50:23.367Z,92.50
2018-03-10T23:55:17.671Z,92.80
